createdAt,value
2023-04-18T00:02:01.305Z,11.90
2023-04-18T00:04:28.227Z,16.60
2023-04-18T00:06:55.068Z,12.30
2023-04-18T00:09:21.255Z,14.93
2023-04-18T00:11:47.637Z,13.87
2023-04-18T00:14:13.978Z,12.77
2023-04-18T00:16:40.265Z,13.03
2023-04-18T00:19:07.909Z,14.93
2023-04-18T00:21:35.330Z,14.20
2023-04-18T00:24:01.463Z,15.57
2023-04-18T00:26:27.657Z,15.93
2023-04-18T00:28:53.898Z,14.73
2023-04-18T00:31:20.080Z,12.50
2023-04-18T00:33:46.233Z,10.70
2023-04-18T00:36:12.682Z,8.90
2023-04-18T00:38:39.567Z,13.20
2023-04-18T00:41:05.769Z,10.57
2023-04-18T00:43:34.242Z,12.60
2023-04-18T00:46:00.881Z,18.00
2023-04-18T00:48:27.194Z,17.17
2023-04-18T00:50:53.510Z,11.50
2023-04-18T00:53:19.797Z,11.07
2023-04-18T00:55:47.197Z,12.87
2023-04-18T00:58:13.954Z,11.73
2023-04-18T01:00:40.665Z,19.03
2023-04-18T01:03:07.804Z,15.30
2023-04-18T01:05:35.397Z,14.93
2023-04-18T01:08:02.236Z,14.57
2023-04-18T01:10:29.296Z,11.70
2023-04-18T01:13:10.881Z,14.57
2023-04-18T01:15:37.109Z,15.23
2023-04-18T01:18:03.644Z,17.57
2023-04-18T01:20:31.586Z,16.33
2023-04-18T01:22:58.387Z,15.57
2023-04-18T01:25:25.506Z,13.67
2023-04-18T01:27:53.512Z,13.77
2023-04-18T01:30:20.227Z,18.30
2023-04-18T01:32:46.522Z,15.33
2023-04-18T01:35:12.740Z,15.33
2023-04-18T01:37:38.870Z,15.03
2023-04-18T01:40:06.252Z,14.73
2023-04-18T01:42:33.011Z,14.80
2023-04-18T01:44:59.265Z,15.40
2023-04-18T01:47:25.402Z,14.57
2023-04-18T01:49:51.663Z,14.07
2023-04-18T01:52:17.783Z,13.73
2023-04-18T01:54:44.061Z,13.97
2023-04-18T01:57:10.188Z,16.23
2023-04-18T01:59:36.968Z,18.13
2023-04-18T02:02:03.312Z,17.10
2023-04-18T02:04:29.675Z,17.10
2023-04-18T02:06:55.969Z,14.67
2023-04-18T02:09:22.078Z,16.47
2023-04-18T02:11:48.184Z,19.87
2023-04-18T02:14:14.610Z,15.23
2023-04-18T02:16:41.696Z,14.63
2023-04-18T02:19:07.834Z,17.20
2023-04-18T02:21:33.988Z,15.63
2023-04-18T02:24:00.169Z,19.80
2023-04-18T02:26:26.383Z,13.20
2023-04-18T02:28:52.536Z,18.47
2023-04-18T02:31:18.716Z,18.63
2023-04-18T02:33:46.374Z,19.13
2023-04-18T02:36:12.649Z,15.23
2023-04-18T02:38:38.765Z,16.00
2023-04-18T02:41:04.890Z,16.40
2023-04-18T02:43:31.081Z,18.07
2023-04-18T02:45:57.267Z,17.23
2023-04-18T02:48:23.613Z,15.93
2023-04-18T02:50:50.434Z,18.17
2023-04-18T02:53:16.585Z,15.57
2023-04-18T02:55:42.937Z,17.43
2023-04-18T02:58:09.226Z,16.23
2023-04-18T03:00:35.608Z,15.20
2023-04-18T03:03:01.843Z,19.60
2023-04-18T03:05:28.038Z,15.60
2023-04-18T03:07:54.788Z,15.57
2023-04-18T03:10:20.938Z,17.00
2023-04-18T03:12:47.149Z,13.93
2023-04-18T03:15:13.273Z,17.17
2023-04-18T03:17:39.464Z,17.03
2023-04-18T03:20:07.254Z,20.13
2023-04-18T03:22:33.511Z,18.13
2023-04-18T03:25:00.395Z,14.37
2023-04-18T03:27:26.631Z,17.00
2023-04-18T03:29:52.798Z,18.07
2023-04-18T03:32:19.025Z,16.10
2023-04-18T03:34:45.418Z,14.90
2023-04-18T03:37:11.614Z,16.10
2023-04-18T03:39:37.801Z,15.67
2023-04-18T03:42:04.594Z,15.90
2023-04-18T03:44:30.786Z,21.40
2023-04-18T03:46:56.932Z,18.47
2023-04-18T03:49:23.097Z,16.60
2023-04-18T03:51:49.468Z,14.90
2023-04-18T03:54:16.500Z,16.73
2023-04-18T03:56:43.189Z,22.10
2023-04-18T03:59:10.154Z,20.37
2023-04-18T04:01:36.586Z,17.10
2023-04-18T04:04:03.185Z,16.47
2023-04-18T04:06:30.438Z,15.43
2023-04-18T04:08:56.819Z,20.80
2023-04-18T04:11:23.062Z,19.40
2023-04-18T04:13:49.305Z,16.50
2023-04-18T04:16:16.210Z,18.03
2023-04-18T04:18:42.338Z,19.23
2023-04-18T04:21:08.690Z,15.20
2023-04-18T04:23:35.004Z,16.63
2023-04-18T04:26:03.423Z,15.30
2023-04-18T04:28:30.266Z,23.03
2023-04-18T04:30:56.886Z,17.47
2023-04-18T04:33:24.835Z,17.93
2023-04-18T04:35:51.540Z,18.13
2023-04-18T04:38:19.177Z,15.30
2023-04-18T04:40:45.561Z,15.53
2023-04-18T04:43:14.454Z,15.43
2023-04-18T04:45:40.803Z,15.50
2023-04-18T04:48:07.081Z,17.17
2023-04-18T04:50:36.583Z,17.03
2023-04-18T04:53:02.758Z,16.13
2023-04-18T04:55:28.931Z,15.10
2023-04-18T04:57:55.187Z,14.47
2023-04-18T05:00:21.549Z,15.27
2023-04-18T05:02:47.905Z,14.33
2023-04-18T05:05:14.382Z,17.20
2023-04-18T05:07:41.118Z,14.27
2023-04-18T05:10:07.929Z,14.37
2023-04-18T05:12:34.053Z,20.37
2023-04-18T05:15:00.168Z,18.60
2023-04-18T05:17:26.286Z,15.70
2023-04-18T05:19:52.511Z,16.50
2023-04-18T05:22:18.642Z,19.13
2023-04-18T05:24:46.117Z,15.20
2023-04-18T05:27:12.266Z,16.67
2023-04-18T05:29:38.369Z,16.40
2023-04-18T05:32:05.961Z,19.13
2023-04-18T05:34:32.357Z,17.87
2023-04-18T05:36:58.601Z,16.07
2023-04-18T05:39:24.897Z,16.57
2023-04-18T05:41:51.976Z,16.50
2023-04-18T05:44:19.102Z,17.23
2023-04-18T05:46:45.547Z,18.13
2023-04-18T05:49:11.735Z,16.87
2023-04-18T05:51:38.105Z,16.83
2023-04-18T05:54:04.355Z,20.23
2023-04-18T05:56:30.471Z,17.47
2023-04-18T05:58:57.435Z,16.43
2023-04-18T06:01:23.722Z,18.90
2023-04-18T06:03:50.071Z,16.53
2023-04-18T06:06:16.489Z,18.63
2023-04-18T06:08:42.850Z,14.77
2023-04-18T06:11:09.051Z,15.50
2023-04-18T06:13:36.389Z,14.30
2023-04-18T06:16:06.086Z,17.07
2023-04-18T06:18:32.380Z,13.60
2023-04-18T06:20:58.589Z,14.93
2023-04-18T06:23:24.814Z,16.80
2023-04-18T06:25:51.601Z,13.30
2023-04-18T06:28:17.728Z,13.13
2023-04-18T06:30:44.179Z,14.03
2023-04-18T06:33:11.062Z,13.83
2023-04-18T06:35:37.437Z,15.10
2023-04-18T06:38:03.683Z,14.07
2023-04-18T06:40:29.920Z,16.20
2023-04-18T06:42:56.188Z,15.63
2023-04-18T06:45:22.522Z,16.37
2023-04-18T06:47:48.737Z,14.77
2023-04-18T06:50:17.076Z,12.93
2023-04-18T06:52:44.862Z,17.27
2023-04-18T06:55:12.337Z,12.40
2023-04-18T06:57:38.720Z,17.37
2023-04-18T07:00:06.108Z,15.23
2023-04-18T07:02:32.398Z,13.57
2023-04-18T07:04:58.631Z,13.17
2023-04-18T07:07:25.891Z,9.63
2023-04-18T07:09:52.040Z,11.73
2023-04-18T07:12:18.161Z,10.57
2023-04-18T07:14:44.294Z,14.77
2023-04-18T07:17:10.442Z,12.13
2023-04-18T07:19:36.560Z,11.80
2023-04-18T07:22:02.916Z,12.37
2023-04-18T07:24:29.916Z,16.07
2023-04-18T07:26:56.350Z,12.97
2023-04-18T07:29:22.614Z,13.40
2023-04-18T07:31:49.320Z,13.30
2023-04-18T07:34:16.536Z,10.60
2023-04-18T07:36:42.719Z,11.40
2023-04-18T07:39:08.862Z,11.67
2023-04-18T07:41:35.638Z,11.40
2023-04-18T07:44:02.110Z,13.67
2023-04-18T07:46:28.645Z,11.17
2023-04-18T07:48:54.877Z,11.20
2023-04-18T07:51:21.407Z,12.63
2023-04-18T07:53:47.658Z,9.20
2023-04-18T07:56:13.767Z,12.70
2023-04-18T07:58:40.561Z,12.60
2023-04-18T08:01:08.174Z,11.90
2023-04-18T08:03:36.274Z,12.67
2023-04-18T08:06:02.973Z,10.63
2023-04-18T08:08:29.121Z,15.20
2023-04-18T08:10:55.306Z,13.73
2023-04-18T08:13:21.430Z,14.10
2023-04-18T08:15:48.419Z,14.30
2023-04-18T08:18:14.587Z,11.87
2023-04-18T08:20:40.892Z,12.50
2023-04-18T08:23:10.269Z,14.63
2023-04-18T08:25:38.602Z,14.23
2023-04-18T08:28:05.073Z,13.33
2023-04-18T08:30:31.685Z,13.43
2023-04-18T08:32:58.620Z,12.03
2023-04-18T08:35:24.852Z,13.47
2023-04-18T08:37:51.056Z,13.23
2023-04-18T08:40:17.843Z,12.77
2023-04-18T08:42:44.373Z,12.83
2023-04-18T08:45:13.422Z,14.03
2023-04-18T08:47:39.756Z,14.03
2023-04-18T08:50:08.612Z,13.40
2023-04-18T08:52:35.595Z,15.20
2023-04-18T08:55:01.999Z,12.67
2023-04-18T08:57:30.121Z,13.40
2023-04-18T08:59:56.545Z,12.77
2023-04-18T09:02:37.958Z,16.27
2023-04-18T09:05:11.609Z,12.40
2023-04-18T09:07:37.756Z,10.93
2023-04-18T09:10:04.671Z,12.60
2023-04-18T09:12:31.831Z,14.33
2023-04-18T09:15:10.857Z,13.77
2023-04-18T09:17:40.830Z,13.53
2023-04-18T09:20:09.893Z,16.30
2023-04-18T09:22:47.380Z,13.17
2023-04-18T09:25:24.485Z,14.93
2023-04-18T09:27:50.610Z,14.23
2023-04-18T09:30:29.399Z,19.60
2023-04-18T09:32:57.858Z,15.70
2023-04-18T09:35:24.868Z,13.73
2023-04-18T09:37:51.899Z,15.60
2023-04-18T09:40:19.174Z,17.67
2023-04-18T09:42:45.538Z,14.77
2023-04-18T09:45:12.506Z,13.80
2023-04-18T09:47:39.062Z,17.20
2023-04-18T09:50:06.829Z,19.23
2023-04-18T09:52:35.104Z,18.47
2023-04-18T09:55:03.594Z,18.70
2023-04-18T09:57:31.636Z,21.50
2023-04-18T10:00:07.927Z,14.50
2023-04-18T10:02:40.778Z,19.70
2023-04-18T10:05:08.344Z,16.60
2023-04-18T10:07:35.336Z,23.13
2023-04-18T10:10:02.101Z,16.83
2023-04-18T10:12:28.255Z,21.20
2023-04-18T10:14:54.809Z,17.13
2023-04-18T10:17:21.457Z,19.13
2023-04-18T10:20:04.403Z,17.10
2023-04-18T10:22:31.253Z,15.50
2023-04-18T10:24:57.611Z,17.50
2023-04-18T10:27:55.278Z,17.73
2023-04-18T10:30:51.889Z,17.70
2023-04-18T10:33:30.950Z,15.97
2023-04-18T10:36:13.492Z,18.33
2023-04-18T10:38:44.569Z,15.40
2023-04-18T10:41:19.074Z,14.50
2023-04-18T10:44:12.459Z,19.27
2023-04-18T10:46:40.104Z,14.80
2023-04-18T10:49:13.516Z,13.43
2023-04-18T10:51:39.834Z,15.53
2023-04-18T10:54:08.041Z,18.23
2023-04-18T10:56:34.189Z,15.33
2023-04-18T10:59:02.282Z,19.60
2023-04-18T11:01:32.660Z,15.03
2023-04-18T11:04:00.033Z,19.43
2023-04-18T11:06:26.877Z,23.70
2023-04-18T11:09:09.232Z,16.73
2023-04-18T11:11:35.364Z,18.90
2023-04-18T11:14:01.710Z,16.83
2023-04-18T11:16:29.854Z,15.20
2023-04-18T11:18:56.278Z,17.63
2023-04-18T11:21:27.624Z,15.10
2023-04-18T11:23:55.714Z,15.77
2023-04-18T11:26:24.171Z,17.03
2023-04-18T11:28:51.763Z,17.07
2023-04-18T11:31:18.030Z,15.37
2023-04-18T11:33:46.921Z,17.23
2023-04-18T11:36:13.250Z,17.00
2023-04-18T11:38:39.906Z,18.53
2023-04-18T11:41:11.987Z,21.77
2023-04-18T11:43:42.100Z,15.57
2023-04-18T11:46:08.265Z,16.37
2023-04-18T11:48:35.340Z,16.43
2023-04-18T11:51:02.130Z,15.97
2023-04-18T11:53:32.371Z,16.47
2023-04-18T11:55:59.105Z,14.43
2023-04-18T11:58:29.931Z,15.60
2023-04-18T12:00:56.076Z,16.00
2023-04-18T12:03:23.717Z,14.27
2023-04-18T12:05:58.025Z,25.63
2023-04-18T12:08:25.024Z,15.87
2023-04-18T12:10:52.581Z,15.20
2023-04-18T12:13:23.316Z,15.70
2023-04-18T12:15:49.820Z,15.80
2023-04-18T12:18:18.869Z,18.17
2023-04-18T12:20:49.224Z,13.87
2023-04-18T12:23:31.515Z,13.73
2023-04-18T12:26:01.385Z,13.37
2023-04-18T12:28:27.863Z,13.00
2023-04-18T12:30:54.033Z,15.77
2023-04-18T12:33:20.195Z,14.00
2023-04-18T12:35:47.792Z,14.07
2023-04-18T12:38:15.327Z,17.47
2023-04-18T12:40:42.190Z,14.13
2023-04-18T12:43:09.207Z,15.27
2023-04-18T12:45:35.348Z,18.57
2023-04-18T12:48:01.772Z,16.83
2023-04-18T12:50:27.994Z,16.33
2023-04-18T12:52:56.877Z,17.07
2023-04-18T12:55:23.651Z,15.33
2023-04-18T12:57:53.527Z,14.70
2023-04-18T13:00:19.873Z,17.43
2023-04-18T13:02:46.248Z,14.87
2023-04-18T13:05:13.540Z,16.60
2023-04-18T13:07:41.695Z,16.93
2023-04-18T13:10:09.019Z,14.17
2023-04-18T13:12:35.260Z,16.90
2023-04-18T13:15:02.806Z,16.60
2023-04-18T13:17:28.958Z,14.77
2023-04-18T13:19:55.087Z,19.60
2023-04-18T13:22:21.280Z,18.80
2023-04-18T13:24:47.571Z,19.53
2023-04-18T13:27:13.862Z,16.30
2023-04-18T13:29:41.190Z,19.77
2023-04-18T13:32:08.353Z,17.37
2023-04-18T13:34:37.877Z,16.23
2023-04-18T13:37:04.205Z,14.77
2023-04-18T13:39:32.063Z,18.90
2023-04-18T13:41:58.481Z,14.83
2023-04-18T13:44:25.131Z,17.20
2023-04-18T13:46:52.160Z,18.47
2023-04-18T13:49:18.945Z,16.03
2023-04-18T13:51:45.455Z,15.87
2023-04-18T13:54:14.483Z,15.47
2023-04-18T13:56:40.764Z,13.97
2023-04-18T13:59:06.980Z,14.83
2023-04-18T14:01:33.307Z,13.33
2023-04-18T14:03:59.914Z,18.63
2023-04-18T14:06:27.012Z,15.17
2023-04-18T14:08:53.658Z,14.07
2023-04-18T14:11:20.082Z,16.47
2023-04-18T14:13:46.425Z,18.43
2023-04-18T14:16:12.651Z,16.70
2023-04-18T14:18:38.812Z,15.13
2023-04-18T14:21:05.629Z,16.10
2023-04-18T14:23:32.450Z,14.60
2023-04-18T14:25:58.602Z,12.50
2023-04-18T14:28:25.247Z,15.73
2023-04-18T14:30:52.062Z,13.43
2023-04-18T14:33:18.314Z,14.13
2023-04-18T14:35:44.999Z,12.73
2023-04-18T14:38:11.190Z,14.00
2023-04-18T14:40:37.992Z,14.87
2023-04-18T14:43:04.110Z,13.63
2023-04-18T14:45:32.310Z,12.03
2023-04-18T14:47:58.617Z,13.67
2023-04-18T14:50:24.805Z,15.60
2023-04-18T14:52:50.979Z,14.83
2023-04-18T14:55:18.601Z,15.33
2023-04-18T14:57:45.723Z,13.87
2023-04-18T15:00:13.778Z,12.77
2023-04-18T15:02:40.418Z,11.47
2023-04-18T15:05:07.652Z,12.53
2023-04-18T15:07:35.200Z,12.97
2023-04-18T15:10:01.479Z,11.17
2023-04-18T15:12:29.105Z,10.43
2023-04-18T15:14:55.867Z,12.97
2023-04-18T15:17:22.084Z,12.27
2023-04-18T15:19:48.246Z,11.03
2023-04-18T15:22:14.393Z,11.77
2023-04-18T15:24:40.739Z,10.10
2023-04-18T15:27:07.274Z,11.73
2023-04-18T15:29:33.730Z,12.87
2023-04-18T15:32:00.703Z,13.20
2023-04-18T15:34:27.207Z,12.80
2023-04-18T15:36:53.303Z,15.10
2023-04-18T15:39:22.570Z,11.63
2023-04-18T15:41:51.409Z,12.27
2023-04-18T15:44:17.510Z,12.73
2023-04-18T15:46:43.670Z,11.67
2023-04-18T15:49:10.421Z,12.10
2023-04-18T15:51:36.567Z,15.77
2023-04-18T15:54:03.291Z,14.53
2023-04-18T15:56:31.750Z,14.27
2023-04-18T15:59:00.851Z,11.77
2023-04-18T16:01:27.121Z,13.13
2023-04-18T16:03:53.456Z,12.93
2023-04-18T16:06:22.530Z,12.13
2023-04-18T16:08:48.691Z,15.13
2023-04-18T16:11:14.973Z,12.70
2023-04-18T16:13:41.260Z,15.10
2023-04-18T16:16:07.754Z,15.13
2023-04-18T16:18:33.957Z,16.27
2023-04-18T16:21:00.200Z,16.40
2023-04-18T16:23:26.982Z,14.63
2023-04-18T16:25:54.413Z,13.23
2023-04-18T16:28:20.710Z,14.77
2023-04-18T16:30:47.100Z,22.47
2023-04-18T16:33:13.728Z,15.73
2023-04-18T16:35:40.157Z,17.13
2023-04-18T16:38:06.429Z,16.20
2023-04-18T16:40:34.387Z,17.73
2023-04-18T16:43:01.220Z,13.87
2023-04-18T16:45:27.484Z,16.00
2023-04-18T16:47:53.688Z,13.73
2023-04-18T16:50:21.998Z,14.53
2023-04-18T16:52:48.302Z,14.97
2023-04-18T16:55:14.531Z,14.27
2023-04-18T16:57:41.302Z,13.97
2023-04-18T17:00:09.514Z,15.63
2023-04-18T17:02:36.071Z,15.37
2023-04-18T17:05:02.579Z,17.53
2023-04-18T17:07:29.575Z,15.40
2023-04-18T17:09:55.861Z,15.10
2023-04-18T17:12:21.982Z,15.57
2023-04-18T17:14:48.922Z,14.40
2023-04-18T17:17:15.134Z,16.37
2023-04-18T17:19:41.457Z,15.60
2023-04-18T17:22:07.575Z,17.53
2023-04-18T17:24:33.853Z,16.67
2023-04-18T17:27:00.654Z,15.53
2023-04-18T17:29:27.007Z,17.70
2023-04-18T17:31:53.772Z,18.03
2023-04-18T17:34:20.497Z,16.70
2023-04-18T17:36:46.881Z,16.17
2023-04-18T17:39:15.493Z,17.70
2023-04-18T17:41:41.874Z,15.93
2023-04-18T17:44:09.506Z,15.90
2023-04-18T17:46:35.760Z,16.40
2023-04-18T17:49:03.545Z,15.67
2023-04-18T17:51:30.164Z,19.03
2023-04-18T17:53:56.435Z,17.53
2023-04-18T17:56:22.887Z,17.87
2023-04-18T17:58:49.021Z,18.70
2023-04-18T18:01:15.510Z,18.30
2023-04-18T18:03:42.947Z,18.37
2023-04-18T18:06:11.191Z,18.43
2023-04-18T18:08:37.362Z,17.43
2023-04-18T18:11:05.222Z,21.43
2023-04-18T18:13:31.362Z,16.67
2023-04-18T18:15:57.522Z,22.00
2023-04-18T18:18:23.841Z,20.17
2023-04-18T18:20:50.104Z,20.97
2023-04-18T18:23:17.193Z,18.73
2023-04-18T18:25:43.360Z,19.83
2023-04-18T18:28:09.589Z,19.73
2023-04-18T18:30:37.163Z,22.40
2023-04-18T18:33:03.464Z,19.80
2023-04-18T18:35:29.829Z,20.03
2023-04-18T18:37:56.111Z,20.63
2023-04-18T18:40:23.290Z,18.93
2023-04-18T18:42:52.158Z,22.93
2023-04-18T18:45:20.362Z,19.67
2023-04-18T18:47:46.578Z,19.23
2023-04-18T18:50:13.127Z,17.17
2023-04-18T18:52:39.925Z,17.63
2023-04-18T18:55:07.461Z,19.23
2023-04-18T18:57:34.276Z,20.43
2023-04-18T19:00:00.614Z,22.03
2023-04-18T19:02:27.083Z,19.60
2023-04-18T19:04:53.465Z,20.83
2023-04-18T19:07:19.847Z,20.70
2023-04-18T19:09:46.555Z,18.53
2023-04-18T19:12:12.773Z,20.30
2023-04-18T19:14:42.296Z,18.03
2023-04-18T19:17:08.938Z,17.40
2023-04-18T19:19:35.496Z,21.37
2023-04-18T19:22:01.943Z,18.63
2023-04-18T19:24:28.140Z,20.20
2023-04-18T19:26:54.514Z,18.77
2023-04-18T19:29:21.695Z,21.63
2023-04-18T19:31:48.827Z,19.53
2023-04-18T19:34:17.982Z,20.20
2023-04-18T19:36:44.444Z,18.30
2023-04-18T19:39:10.580Z,18.13
2023-04-18T19:41:36.718Z,20.50
2023-04-18T19:44:03.181Z,19.07
2023-04-18T19:46:29.548Z,18.13
2023-04-18T19:48:56.536Z,20.60
2023-04-18T19:51:22.741Z,17.30
2023-04-18T19:53:48.877Z,15.87
2023-04-18T19:56:15.051Z,18.47
2023-04-18T19:58:44.134Z,20.17
2023-04-18T20:01:11.142Z,20.20
2023-04-18T20:03:37.892Z,18.83
2023-04-18T20:06:05.390Z,18.10
2023-04-18T20:08:31.677Z,19.70
2023-04-18T20:10:57.803Z,19.03
2023-04-18T20:13:23.916Z,20.37
2023-04-18T20:15:50.381Z,20.13
2023-04-18T20:18:17.193Z,22.53
2023-04-18T20:20:43.422Z,21.20
2023-04-18T20:23:10.431Z,17.70
2023-04-18T20:25:36.696Z,20.50
2023-04-18T20:28:03.211Z,18.97
2023-04-18T20:30:29.492Z,18.70
2023-04-18T20:32:55.718Z,19.67
2023-04-18T20:35:22.174Z,18.70
2023-04-18T20:37:49.022Z,16.00
2023-04-18T20:40:16.578Z,20.57
2023-04-18T20:42:42.844Z,20.93
2023-04-18T20:45:10.173Z,18.77
2023-04-18T20:47:36.560Z,18.93
2023-04-18T20:50:02.795Z,17.67
2023-04-18T20:52:28.931Z,16.07
2023-04-18T20:54:55.079Z,15.37
2023-04-18T20:57:21.826Z,17.50
2023-04-18T20:59:48.004Z,17.80
2023-04-18T21:02:14.279Z,16.90
2023-04-18T21:04:40.737Z,16.73
2023-04-18T21:07:06.898Z,16.53
2023-04-18T21:09:35.736Z,17.90
2023-04-18T21:12:02.010Z,17.43
2023-04-18T21:14:28.771Z,16.23
2023-04-18T21:16:54.933Z,18.00
2023-04-18T21:19:21.109Z,20.60
2023-04-18T21:21:47.223Z,17.13
2023-04-18T21:24:13.608Z,16.60
2023-04-18T21:26:40.242Z,16.53
2023-04-18T21:29:06.483Z,20.47
2023-04-18T21:31:34.470Z,18.73
2023-04-18T21:34:01.898Z,20.60
2023-04-18T21:36:28.683Z,27.80
2023-04-18T21:38:55.618Z,16.87
2023-04-18T21:41:21.944Z,17.97
2023-04-18T21:43:49.017Z,17.17
2023-04-18T21:46:16.150Z,17.50
2023-04-18T21:48:44.747Z,19.37
2023-04-18T21:51:12.292Z,19.57
2023-04-18T21:53:38.569Z,17.60
2023-04-18T21:56:05.309Z,17.47
2023-04-18T21:58:31.885Z,19.07
2023-04-18T22:00:58.155Z,17.33
2023-04-18T22:03:25.668Z,17.77
2023-04-18T22:05:52.605Z,14.97
2023-04-18T22:08:19.449Z,17.27
2023-04-18T22:10:48.956Z,19.20
2023-04-18T22:13:15.965Z,20.07
2023-04-18T22:15:42.204Z,18.50
2023-04-18T22:18:08.743Z,19.03
2023-04-18T22:20:35.353Z,17.23
2023-04-18T22:23:03.375Z,18.53
2023-04-18T22:25:30.035Z,19.10
2023-04-18T22:27:56.294Z,18.17
2023-04-18T22:30:24.018Z,16.97
2023-04-18T22:32:50.272Z,19.53
2023-04-18T22:35:16.770Z,17.63
2023-04-18T22:37:43.003Z,21.07
2023-04-18T22:40:11.052Z,19.90
2023-04-18T22:42:38.636Z,18.00
2023-04-18T22:45:06.086Z,17.70
2023-04-18T22:47:32.433Z,17.93
2023-04-18T22:49:58.591Z,19.50
2023-04-18T22:52:24.968Z,18.93
2023-04-18T22:54:51.095Z,18.77
2023-04-18T22:57:17.992Z,18.80
2023-04-18T22:59:44.371Z,21.47
2023-04-18T23:02:10.611Z,19.87
2023-04-18T23:04:36.963Z,20.87
2023-04-18T23:07:03.202Z,18.00
2023-04-18T23:09:30.516Z,20.60
2023-04-18T23:11:57.395Z,21.43
2023-04-18T23:14:24.405Z,20.93
2023-04-18T23:16:50.512Z,20.90
2023-04-18T23:19:16.639Z,19.90
2023-04-18T23:21:43.872Z,21.60
2023-04-18T23:24:11.235Z,20.93
2023-04-18T23:26:37.428Z,20.23
2023-04-18T23:29:03.758Z,23.43
2023-04-18T23:31:32.012Z,20.63
2023-04-18T23:33:58.158Z,21.03
2023-04-18T23:36:24.340Z,22.30
2023-04-18T23:38:50.468Z,22.60
2023-04-18T23:41:16.587Z,21.97
2023-04-18T23:43:42.695Z,22.90
2023-04-18T23:46:08.906Z,20.60
2023-04-18T23:48:35.670Z,22.03
2023-04-18T23:51:01.816Z,23.10
2023-04-18T23:53:28.249Z,20.90
2023-04-18T23:55:54.530Z,20.77
2023-04-18T23:58:20.974Z,20.53
